CheckWX is a tool to help pilots better visualize weather data.  It is not intended as a substitute for an official pre-flight weather briefing.

22:16:48 UTC

2G9 METAR
Somerset County Airport
Somerset, Pennsylvania, USA
Current

42 mins ago

K2G9 152135Z AUTO 29006KT 10SM CLR 26/14 A3016 RMK AO2
Observed
Jul-15 @ 21:35 UTC
Wind
  • 290° at 6 KTS
Visibility
10 SM
Flight Rules
VFR
Cloud Levels
  • Clear skies
Temperature
26°C / 79°F
Dewpoint
14°C / 57°F
Humidity
48%
Altimeter
30.16" Hg
Pressure
1021.32 hPa
Previous

1 hour ago

K2G9 152115Z AUTO 28009KT 10SM CLR 26/13 A3016 RMK AO2
Observed
Jul-15 @ 21:15 UTC
Wind
  • 280° at 9 KTS
Visibility
10 SM
Flight Rules
VFR
Cloud Levels
  • Clear skies
Temperature
26°C / 79°F
Dewpoint
13°C / 55°F
Humidity
45%
Altimeter
30.16" Hg
Pressure
1021.32 hPa
Previous

1 hour ago

K2G9 152055Z AUTO 30011G14KT 10SM CLR 26/13 A3016 RMK AO2
Observed
Jul-15 @ 20:55 UTC
Wind
  • 300° at 11 KTS
  • Gusting to 14 KTS
Visibility
10 SM
Flight Rules
VFR
Cloud Levels
  • Clear skies
Temperature
26°C / 79°F
Dewpoint
13°C / 55°F
Humidity
45%
Altimeter
30.16" Hg
Pressure
1021.32 hPa